sensor_id;sensor_type;location;lat;lon;timestamp;P1;durP1;ratioP1;P2;durP2;ratioP2
70532;SDS011;58088;51.186;17.130;2023-08-30T00:00:59;5.40;;;2.20;;
70532;SDS011;58088;51.186;17.130;2023-08-30T00:03:26;5.00;;;2.30;;
70532;SDS011;58088;51.186;17.130;2023-08-30T00:05:52;6.00;;;2.40;;
70532;SDS011;58088;51.186;17.130;2023-08-30T00:08:18;6.10;;;2.50;;
70532;SDS011;58088;51.186;17.130;2023-08-30T00:10:45;6.00;;;2.40;;
70532;SDS011;58088;51.186;17.130;2023-08-30T00:13:13;5.40;;;2.60;;
70532;SDS011;58088;51.186;17.130;2023-08-30T00:15:39;5.70;;;2.60;;
70532;SDS011;58088;51.186;17.130;2023-08-30T00:18:05;5.00;;;2.20;;
70532;SDS011;58088;51.186;17.130;2023-08-30T00:20:32;6.50;;;2.80;;
70532;SDS011;58088;51.186;17.130;2023-08-30T00:22:58;6.90;;;2.70;;
70532;SDS011;58088;51.186;17.130;2023-08-30T00:25:24;5.80;;;2.60;;
70532;SDS011;58088;51.186;17.130;2023-08-30T00:27:51;9.00;;;2.90;;
70532;SDS011;58088;51.186;17.130;2023-08-30T00:30:17;6.00;;;2.60;;
70532;SDS011;58088;51.186;17.130;2023-08-30T00:32:43;6.40;;;2.60;;
70532;SDS011;58088;51.186;17.130;2023-08-30T00:35:10;5.00;;;2.30;;
70532;SDS011;58088;51.186;17.130;2023-08-30T00:37:36;6.20;;;2.50;;
70532;SDS011;58088;51.186;17.130;2023-08-30T00:40:03;6.10;;;2.20;;
70532;SDS011;58088;51.186;17.130;2023-08-30T00:42:31;7.30;;;2.60;;
70532;SDS011;58088;51.186;17.130;2023-08-30T00:44:57;5.50;;;2.10;;
70532;SDS011;58088;51.186;17.130;2023-08-30T00:47:24;8.00;;;2.30;;
70532;SDS011;58088;51.186;17.130;2023-08-30T00:49:51;6.00;;;2.40;;
70532;SDS011;58088;51.186;17.130;2023-08-30T00:52:17;4.80;;;2.20;;
70532;SDS011;58088;51.186;17.130;2023-08-30T00:54:44;7.30;;;2.10;;
70532;SDS011;58088;51.186;17.130;2023-08-30T00:57:12;5.10;;;2.30;;
70532;SDS011;58088;51.186;17.130;2023-08-30T00:59:39;4.60;;;2.10;;
70532;SDS011;58088;51.186;17.130;2023-08-30T01:02:07;5.20;;;2.20;;
70532;SDS011;58088;51.186;17.130;2023-08-30T01:04:34;4.50;;;2.00;;
70532;SDS011;58088;51.186;17.130;2023-08-30T01:07:00;6.30;;;2.50;;
70532;SDS011;58088;51.186;17.130;2023-08-30T01:09:27;5.10;;;2.10;;
70532;SDS011;58088;51.186;17.130;2023-08-30T01:12:13;4.50;;;1.90;;
70532;SDS011;58088;51.186;17.130;2023-08-30T01:15:21;3.90;;;1.80;;
70532;SDS011;58088;51.186;17.130;2023-08-30T01:17:52;5.00;;;1.60;;
70532;SDS011;58088;51.186;17.130;2023-08-30T01:20:22;3.60;;;1.50;;
70532;SDS011;58088;51.186;17.130;2023-08-30T01:23:24;5.40;;;1.60;;
70532;SDS011;58088;51.186;17.130;2023-08-30T01:26:42;2.90;;;1.00;;
70532;SDS011;58088;51.186;17.130;2023-08-30T01:29:20;3.80;;;1.40;;
70532;SDS011;58088;51.186;17.130;2023-08-30T01:31:48;4.60;;;1.40;;
70532;SDS011;58088;51.186;17.130;2023-08-30T01:34:15;4.30;;;1.60;;
70532;SDS011;58088;51.186;17.130;2023-08-30T01:36:42;4.90;;;1.50;;
70532;SDS011;58088;51.186;17.130;2023-08-30T01:39:13;3.90;;;1.50;;
70532;SDS011;58088;51.186;17.130;2023-08-30T01:41:41;3.30;;;1.50;;
70532;SDS011;58088;51.186;17.130;2023-08-30T01:44:10;4.40;;;1.40;;
70532;SDS011;58088;51.186;17.130;2023-08-30T01:46:38;3.40;;;1.20;;
70532;SDS011;58088;51.186;17.130;2023-08-30T01:49:07;4.10;;;1.30;;
70532;SDS011;58088;51.186;17.130;2023-08-30T01:51:36;4.30;;;1.70;;
70532;SDS011;58088;51.186;17.130;2023-08-30T01:54:03;4.20;;;1.60;;
70532;SDS011;58088;51.186;17.130;2023-08-30T01:56:30;5.00;;;1.90;;
70532;SDS011;58088;51.186;17.130;2023-08-30T01:58:56;4.50;;;1.70;;
70532;SDS011;58088;51.186;17.130;2023-08-30T02:05:03;6.30;;;1.60;;
70532;SDS011;58088;51.186;17.130;2023-08-30T02:07:40;5.90;;;2.20;;
70532;SDS011;58088;51.186;17.130;2023-08-30T02:10:21;4.50;;;1.60;;
70532;SDS011;58088;51.186;17.130;2023-08-30T02:12:54;4.20;;;2.00;;
70532;SDS011;58088;51.186;17.130;2023-08-30T02:15:24;4.20;;;1.80;;
70532;SDS011;58088;51.186;17.130;2023-08-30T02:17:53;5.50;;;1.90;;
70532;SDS011;58088;51.186;17.130;2023-08-30T02:20:19;5.20;;;1.90;;
70532;SDS011;58088;51.186;17.130;2023-08-30T02:22:46;3.60;;;1.60;;
70532;SDS011;58088;51.186;17.130;2023-08-30T02:25:12;5.60;;;2.20;;
70532;SDS011;58088;51.186;17.130;2023-08-30T02:27:38;3.90;;;1.80;;
70532;SDS011;58088;51.186;17.130;2023-08-30T02:30:05;4.00;;;1.70;;
70532;SDS011;58088;51.186;17.130;2023-08-30T02:32:31;5.00;;;1.90;;
70532;SDS011;58088;51.186;17.130;2023-08-30T02:34:58;4.10;;;1.70;;
70532;SDS011;58088;51.186;17.130;2023-08-30T02:37:25;4.20;;;1.70;;
70532;SDS011;58088;51.186;17.130;2023-08-30T02:39:51;4.90;;;2.10;;
70532;SDS011;58088;51.186;17.130;2023-08-30T02:42:17;5.20;;;2.00;;
70532;SDS011;58088;51.186;17.130;2023-08-30T02:44:43;3.70;;;1.70;;
70532;SDS011;58088;51.186;17.130;2023-08-30T02:47:09;4.20;;;1.50;;
70532;SDS011;58088;51.186;17.130;2023-08-30T02:49:35;5.20;;;1.80;;
70532;SDS011;58088;51.186;17.130;2023-08-30T02:52:02;5.10;;;1.90;;
70532;SDS011;58088;51.186;17.130;2023-08-30T02:54:28;4.00;;;1.60;;
70532;SDS011;58088;51.186;17.130;2023-08-30T02:56:54;4.70;;;1.70;;
70532;SDS011;58088;51.186;17.130;2023-08-30T02:59:20;3.90;;;1.90;;
70532;SDS011;58088;51.186;17.130;2023-08-30T03:01:47;3.40;;;1.30;;
70532;SDS011;58088;51.186;17.130;2023-08-30T03:04:15;3.80;;;1.70;;
70532;SDS011;58088;51.186;17.130;2023-08-30T03:06:41;4.20;;;1.50;;
70532;SDS011;58088;51.186;17.130;2023-08-30T03:09:08;4.40;;;1.70;;
70532;SDS011;58088;51.186;17.130;2023-08-30T03:11:36;3.20;;;1.20;;
70532;SDS011;58088;51.186;17.130;2023-08-30T03:14:02;3.50;;;1.50;;
70532;SDS011;58088;51.186;17.130;2023-08-30T03:16:29;4.60;;;1.60;;
70532;SDS011;58088;51.186;17.130;2023-08-30T03:18:55;3.30;;;1.70;;
70532;SDS011;58088;51.186;17.130;2023-08-30T03:21:21;3.30;;;1.60;;
70532;SDS011;58088;51.186;17.130;2023-08-30T03:23:48;5.00;;;1.80;;
70532;SDS011;58088;51.186;17.130;2023-08-30T03:26:15;4.90;;;1.60;;
70532;SDS011;58088;51.186;17.130;2023-08-30T03:28:43;3.10;;;1.50;;
70532;SDS011;58088;51.186;17.130;2023-08-30T03:31:14;3.60;;;1.70;;
70532;SDS011;58088;51.186;17.130;2023-08-30T03:33:45;6.00;;;1.70;;
70532;SDS011;58088;51.186;17.130;2023-08-30T03:36:15;5.50;;;1.70;;
70532;SDS011;58088;51.186;17.130;2023-08-30T03:38:43;4.10;;;2.00;;
70532;SDS011;58088;51.186;17.130;2023-08-30T03:41:11;3.70;;;1.80;;
70532;SDS011;58088;51.186;17.130;2023-08-30T03:43:38;3.40;;;1.50;;
70532;SDS011;58088;51.186;17.130;2023-08-30T03:46:04;4.60;;;1.70;;
70532;SDS011;58088;51.186;17.130;2023-08-30T03:48:31;3.00;;;1.30;;
70532;SDS011;58088;51.186;17.130;2023-08-30T03:50:58;4.30;;;1.30;;
70532;SDS011;58088;51.186;17.130;2023-08-30T03:53:26;4.40;;;1.40;;
70532;SDS011;58088;51.186;17.130;2023-08-30T03:55:53;3.60;;;1.50;;
70532;SDS011;58088;51.186;17.130;2023-08-30T03:58:19;3.60;;;1.20;;
70532;SDS011;58088;51.186;17.130;2023-08-30T04:00:46;4.40;;;1.50;;
70532;SDS011;58088;51.186;17.130;2023-08-30T04:03:14;5.00;;;1.40;;
70532;SDS011;58088;51.186;17.130;2023-08-30T04:05:42;2.90;;;1.30;;
70532;SDS011;58088;51.186;17.130;2023-08-30T04:08:09;3.30;;;1.40;;
70532;SDS011;58088;51.186;17.130;2023-08-30T04:10:37;4.00;;;1.20;;
70532;SDS011;58088;51.186;17.130;2023-08-30T04:13:09;3.40;;;1.60;;
70532;SDS011;58088;51.186;17.130;2023-08-30T04:15:36;3.80;;;1.30;;
70532;SDS011;58088;51.186;17.130;2023-08-30T04:18:04;2.50;;;1.00;;
70532;SDS011;58088;51.186;17.130;2023-08-30T04:20:32;2.40;;;1.10;;
70532;SDS011;58088;51.186;17.130;2023-08-30T04:23:00;4.20;;;1.40;;
70532;SDS011;58088;51.186;17.130;2023-08-30T04:25:33;3.40;;;1.10;;
70532;SDS011;58088;51.186;17.130;2023-08-30T04:28:00;2.70;;;1.20;;
70532;SDS011;58088;51.186;17.130;2023-08-30T04:30:27;2.90;;;1.20;;
70532;SDS011;58088;51.186;17.130;2023-08-30T04:32:53;3.50;;;1.40;;
70532;SDS011;58088;51.186;17.130;2023-08-30T04:35:19;3.20;;;1.30;;
70532;SDS011;58088;51.186;17.130;2023-08-30T04:37:46;3.90;;;1.60;;
70532;SDS011;58088;51.186;17.130;2023-08-30T04:40:14;4.50;;;1.70;;
70532;SDS011;58088;51.186;17.130;2023-08-30T04:42:40;4.50;;;1.50;;
70532;SDS011;58088;51.186;17.130;2023-08-30T04:45:07;3.30;;;1.60;;
70532;SDS011;58088;51.186;17.130;2023-08-30T04:47:35;5.00;;;1.50;;
70532;SDS011;58088;51.186;17.130;2023-08-30T04:50:02;3.90;;;1.80;;
70532;SDS011;58088;51.186;17.130;2023-08-30T04:52:28;4.30;;;1.60;;
70532;SDS011;58088;51.186;17.130;2023-08-30T04:54:57;4.60;;;1.40;;
70532;SDS011;58088;51.186;17.130;2023-08-30T04:57:25;4.00;;;1.60;;
70532;SDS011;58088;51.186;17.130;2023-08-30T04:59:51;4.10;;;1.60;;
70532;SDS011;58088;51.186;17.130;2023-08-30T05:02:18;4.90;;;1.50;;
70532;SDS011;58088;51.186;17.130;2023-08-30T05:04:51;5.70;;;1.90;;
70532;SDS011;58088;51.186;17.130;2023-08-30T05:07:18;6.90;;;2.10;;
70532;SDS011;58088;51.186;17.130;2023-08-30T05:09:45;4.90;;;2.10;;
70532;SDS011;58088;51.186;17.130;2023-08-30T05:12:12;4.10;;;1.70;;
70532;SDS011;58088;51.186;17.130;2023-08-30T05:14:38;4.70;;;1.50;;
70532;SDS011;58088;51.186;17.130;2023-08-30T05:17:06;4.40;;;1.90;;
70532;SDS011;58088;51.186;17.130;2023-08-30T05:19:34;3.90;;;1.80;;
70532;SDS011;58088;51.186;17.130;2023-08-30T05:22:02;4.60;;;1.80;;
70532;SDS011;58088;51.186;17.130;2023-08-30T05:24:29;3.60;;;1.50;;
70532;SDS011;58088;51.186;17.130;2023-08-30T05:26:56;3.80;;;1.20;;
70532;SDS011;58088;51.186;17.130;2023-08-30T05:29:25;3.80;;;1.20;;
70532;SDS011;58088;51.186;17.130;2023-08-30T05:31:52;4.10;;;1.30;;
70532;SDS011;58088;51.186;17.130;2023-08-30T05:34:32;5.40;;;1.40;;
70532;SDS011;58088;51.186;17.130;2023-08-30T05:37:26;2.90;;;1.10;;
70532;SDS011;58088;51.186;17.130;2023-08-30T05:39:53;5.40;;;1.40;;
70532;SDS011;58088;51.186;17.130;2023-08-30T05:42:19;4.30;;;1.40;;
70532;SDS011;58088;51.186;17.130;2023-08-30T05:44:47;4.60;;;1.40;;
70532;SDS011;58088;51.186;17.130;2023-08-30T05:47:14;4.00;;;1.30;;
70532;SDS011;58088;51.186;17.130;2023-08-30T05:49:42;3.80;;;1.30;;
70532;SDS011;58088;51.186;17.130;2023-08-30T05:52:08;4.00;;;1.20;;
70532;SDS011;58088;51.186;17.130;2023-08-30T05:54:35;3.30;;;0.90;;
70532;SDS011;58088;51.186;17.130;2023-08-30T05:57:02;2.70;;;1.10;;
70532;SDS011;58088;51.186;17.130;2023-08-30T05:59:29;2.70;;;1.20;;
70532;SDS011;58088;51.186;17.130;2023-08-30T06:01:55;2.40;;;1.00;;
70532;SDS011;58088;51.186;17.130;2023-08-30T06:04:21;2.50;;;1.20;;
70532;SDS011;58088;51.186;17.130;2023-08-30T06:06:48;2.40;;;0.80;;
70532;SDS011;58088;51.186;17.130;2023-08-30T06:09:14;3.80;;;0.60;;
70532;SDS011;58088;51.186;17.130;2023-08-30T06:11:40;1.70;;;0.80;;
70532;SDS011;58088;51.186;17.130;2023-08-30T06:14:06;2.00;;;0.70;;
70532;SDS011;58088;51.186;17.130;2023-08-30T06:16:33;1.40;;;0.60;;
70532;SDS011;58088;51.186;17.130;2023-08-30T06:19:00;2.70;;;0.70;;
70532;SDS011;58088;51.186;17.130;2023-08-30T06:21:27;2.60;;;0.80;;
70532;SDS011;58088;51.186;17.130;2023-08-30T06:23:53;2.60;;;0.80;;
70532;SDS011;58088;51.186;17.130;2023-08-30T06:26:19;2.00;;;0.70;;
70532;SDS011;58088;51.186;17.130;2023-08-30T06:28:45;3.00;;;0.90;;
70532;SDS011;58088;51.186;17.130;2023-08-30T06:31:12;3.40;;;0.80;;
70532;SDS011;58088;51.186;17.130;2023-08-30T06:33:38;2.20;;;0.70;;
70532;SDS011;58088;51.186;17.130;2023-08-30T06:36:05;1.50;;;0.60;;
70532;SDS011;58088;51.186;17.130;2023-08-30T06:38:31;1.80;;;0.80;;
70532;SDS011;58088;51.186;17.130;2023-08-30T06:40:58;1.50;;;0.70;;
70532;SDS011;58088;51.186;17.130;2023-08-30T06:43:24;2.50;;;0.70;;
70532;SDS011;58088;51.186;17.130;2023-08-30T06:45:51;3.60;;;0.80;;
70532;SDS011;58088;51.186;17.130;2023-08-30T06:48:18;1.30;;;0.60;;
70532;SDS011;58088;51.186;17.130;2023-08-30T06:50:44;2.00;;;0.60;;
70532;SDS011;58088;51.186;17.130;2023-08-30T06:53:11;2.10;;;0.90;;
70532;SDS011;58088;51.186;17.130;2023-08-30T06:55:38;3.50;;;0.80;;
70532;SDS011;58088;51.186;17.130;2023-08-30T06:58:05;1.90;;;0.70;;
70532;SDS011;58088;51.186;17.130;2023-08-30T07:00:31;2.30;;;0.70;;
70532;SDS011;58088;51.186;17.130;2023-08-30T07:02:57;1.80;;;0.80;;
70532;SDS011;58088;51.186;17.130;2023-08-30T07:05:23;1.70;;;0.70;;
70532;SDS011;58088;51.186;17.130;2023-08-30T07:07:49;1.40;;;0.50;;
70532;SDS011;58088;51.186;17.130;2023-08-30T07:10:16;2.70;;;0.80;;
70532;SDS011;58088;51.186;17.130;2023-08-30T07:12:42;2.40;;;0.80;;
70532;SDS011;58088;51.186;17.130;2023-08-30T07:15:11;1.70;;;0.70;;
70532;SDS011;58088;51.186;17.130;2023-08-30T07:17:37;2.70;;;0.90;;
70532;SDS011;58088;51.186;17.130;2023-08-30T07:20:03;1.40;;;0.70;;
70532;SDS011;58088;51.186;17.130;2023-08-30T07:22:34;1.40;;;0.60;;
70532;SDS011;58088;51.186;17.130;2023-08-30T07:25:00;3.70;;;0.50;;
70532;SDS011;58088;51.186;17.130;2023-08-30T07:27:28;1.10;;;0.60;;
70532;SDS011;58088;51.186;17.130;2023-08-30T07:29:55;1.50;;;0.50;;
70532;SDS011;58088;51.186;17.130;2023-08-30T07:32:21;3.80;;;0.70;;
70532;SDS011;58088;51.186;17.130;2023-08-30T07:34:47;3.00;;;0.60;;
70532;SDS011;58088;51.186;17.130;2023-08-30T07:37:18;0.90;;;0.40;;
70532;SDS011;58088;51.186;17.130;2023-08-30T07:39:46;1.20;;;0.40;;
70532;SDS011;58088;51.186;17.130;2023-08-30T07:42:15;1.30;;;0.50;;
70532;SDS011;58088;51.186;17.130;2023-08-30T07:44:41;1.40;;;0.70;;
70532;SDS011;58088;51.186;17.130;2023-08-30T07:47:08;1.50;;;0.70;;
70532;SDS011;58088;51.186;17.130;2023-08-30T07:49:34;2.40;;;0.90;;
70532;SDS011;58088;51.186;17.130;2023-08-30T07:52:01;2.20;;;0.80;;
70532;SDS011;58088;51.186;17.130;2023-08-30T07:54:28;2.70;;;0.90;;
70532;SDS011;58088;51.186;17.130;2023-08-30T07:56:54;1.90;;;0.90;;
70532;SDS011;58088;51.186;17.130;2023-08-30T07:59:20;3.50;;;1.00;;
70532;SDS011;58088;51.186;17.130;2023-08-30T08:01:46;3.20;;;0.90;;
70532;SDS011;58088;51.186;17.130;2023-08-30T08:04:13;2.40;;;1.00;;
70532;SDS011;58088;51.186;17.130;2023-08-30T08:06:39;2.00;;;0.90;;
70532;SDS011;58088;51.186;17.130;2023-08-30T08:09:05;1.20;;;0.60;;
70532;SDS011;58088;51.186;17.130;2023-08-30T08:11:33;3.10;;;0.80;;
70532;SDS011;58088;51.186;17.130;2023-08-30T08:13:59;1.30;;;0.70;;
70532;SDS011;58088;51.186;17.130;2023-08-30T08:16:26;1.50;;;0.70;;
70532;SDS011;58088;51.186;17.130;2023-08-30T08:18:52;1.70;;;0.80;;
70532;SDS011;58088;51.186;17.130;2023-08-30T08:21:19;1.20;;;0.60;;
70532;SDS011;58088;51.186;17.130;2023-08-30T08:23:45;1.10;;;0.50;;
70532;SDS011;58088;51.186;17.130;2023-08-30T08:26:15;1.20;;;0.40;;
70532;SDS011;58088;51.186;17.130;2023-08-30T08:28:41;2.50;;;0.70;;
70532;SDS011;58088;51.186;17.130;2023-08-30T08:31:07;1.40;;;0.60;;
70532;SDS011;58088;51.186;17.130;2023-08-30T08:33:33;1.50;;;0.60;;
70532;SDS011;58088;51.186;17.130;2023-08-30T08:36:00;1.20;;;0.60;;
70532;SDS011;58088;51.186;17.130;2023-08-30T08:38:26;1.80;;;0.80;;
70532;SDS011;58088;51.186;17.130;2023-08-30T08:41:02;2.30;;;0.80;;
70532;SDS011;58088;51.186;17.130;2023-08-30T08:43:32;1.80;;;0.80;;
70532;SDS011;58088;51.186;17.130;2023-08-30T08:46:03;2.60;;;1.10;;
70532;SDS011;58088;51.186;17.130;2023-08-30T08:48:35;2.80;;;1.20;;
70532;SDS011;58088;51.186;17.130;2023-08-30T08:51:06;1.90;;;0.90;;
70532;SDS011;58088;51.186;17.130;2023-08-30T08:53:32;2.20;;;1.10;;
70532;SDS011;58088;51.186;17.130;2023-08-30T08:56:00;2.30;;;1.30;;
70532;SDS011;58088;51.186;17.130;2023-08-30T08:58:29;1.70;;;0.90;;
70532;SDS011;58088;51.186;17.130;2023-08-30T09:00:56;1.90;;;0.90;;
70532;SDS011;58088;51.186;17.130;2023-08-30T09:03:22;1.40;;;0.80;;
70532;SDS011;58088;51.186;17.130;2023-08-30T09:05:49;2.00;;;1.00;;
70532;SDS011;58088;51.186;17.130;2023-08-30T09:08:16;2.50;;;1.20;;
70532;SDS011;58088;51.186;17.130;2023-08-30T09:10:43;1.90;;;0.90;;
70532;SDS011;58088;51.186;17.130;2023-08-30T09:13:09;2.50;;;1.10;;
70532;SDS011;58088;51.186;17.130;2023-08-30T09:15:35;2.30;;;1.10;;
70532;SDS011;58088;51.186;17.130;2023-08-30T09:18:04;2.50;;;0.90;;
70532;SDS011;58088;51.186;17.130;2023-08-30T09:20:41;1.80;;;0.90;;
70532;SDS011;58088;51.186;17.130;2023-08-30T09:23:16;2.20;;;1.00;;
70532;SDS011;58088;51.186;17.130;2023-08-30T09:25:47;2.10;;;1.10;;
70532;SDS011;58088;51.186;17.130;2023-08-30T09:28:21;3.40;;;1.00;;
70532;SDS011;58088;51.186;17.130;2023-08-30T09:30:50;1.70;;;1.00;;
70532;SDS011;58088;51.186;17.130;2023-08-30T09:33:30;1.90;;;0.70;;
70532;SDS011;58088;51.186;17.130;2023-08-30T09:35:58;1.30;;;0.70;;
70532;SDS011;58088;51.186;17.130;2023-08-30T09:38:48;1.80;;;0.70;;
70532;SDS011;58088;51.186;17.130;2023-08-30T09:41:19;1.90;;;0.80;;
70532;SDS011;58088;51.186;17.130;2023-08-30T09:43:46;1.40;;;0.70;;
70532;SDS011;58088;51.186;17.130;2023-08-30T09:46:13;1.60;;;0.70;;
70532;SDS011;58088;51.186;17.130;2023-08-30T09:48:39;1.60;;;0.80;;
70532;SDS011;58088;51.186;17.130;2023-08-30T09:51:08;1.80;;;0.70;;
70532;SDS011;58088;51.186;17.130;2023-08-30T09:53:42;1.80;;;0.80;;
70532;SDS011;58088;51.186;17.130;2023-08-30T09:56:12;1.40;;;0.80;;
70532;SDS011;58088;51.186;17.130;2023-08-30T09:58:40;1.60;;;0.80;;
70532;SDS011;58088;51.186;17.130;2023-08-30T10:01:08;1.70;;;0.80;;
70532;SDS011;58088;51.186;17.130;2023-08-30T10:03:36;2.30;;;1.30;;
70532;SDS011;58088;51.186;17.130;2023-08-30T10:06:03;3.30;;;1.20;;
70532;SDS011;58088;51.186;17.130;2023-08-30T10:08:32;3.80;;;1.40;;
70532;SDS011;58088;51.186;17.130;2023-08-30T10:11:00;3.90;;;1.70;;
70532;SDS011;58088;51.186;17.130;2023-08-30T10:13:29;3.20;;;1.70;;
70532;SDS011;58088;51.186;17.130;2023-08-30T10:16:00;3.00;;;1.60;;
70532;SDS011;58088;51.186;17.130;2023-08-30T10:18:32;5.10;;;1.80;;
70532;SDS011;58088;51.186;17.130;2023-08-30T10:21:02;6.50;;;1.60;;
70532;SDS011;58088;51.186;17.130;2023-08-30T10:23:34;2.20;;;1.10;;
70532;SDS011;58088;51.186;17.130;2023-08-30T10:26:03;2.20;;;1.10;;
70532;SDS011;58088;51.186;17.130;2023-08-30T10:28:31;2.70;;;1.20;;
70532;SDS011;58088;51.186;17.130;2023-08-30T10:31:00;2.50;;;1.20;;
70532;SDS011;58088;51.186;17.130;2023-08-30T10:33:26;1.90;;;1.00;;
70532;SDS011;58088;51.186;17.130;2023-08-30T10:35:52;2.30;;;1.20;;
70532;SDS011;58088;51.186;17.130;2023-08-30T10:38:26;2.40;;;1.30;;
70532;SDS011;58088;51.186;17.130;2023-08-30T10:40:58;3.50;;;1.60;;
70532;SDS011;58088;51.186;17.130;2023-08-30T10:43:34;3.30;;;1.30;;
70532;SDS011;58088;51.186;17.130;2023-08-30T10:46:03;2.30;;;1.20;;
70532;SDS011;58088;51.186;17.130;2023-08-30T10:48:37;3.10;;;1.50;;
70532;SDS011;58088;51.186;17.130;2023-08-30T10:51:19;3.80;;;1.80;;
70532;SDS011;58088;51.186;17.130;2023-08-30T10:53:57;3.00;;;1.70;;
70532;SDS011;58088;51.186;17.130;2023-08-30T10:56:28;2.70;;;1.50;;
70532;SDS011;58088;51.186;17.130;2023-08-30T10:58:56;3.90;;;1.30;;
70532;SDS011;58088;51.186;17.130;2023-08-30T11:01:23;4.10;;;1.90;;
70532;SDS011;58088;51.186;17.130;2023-08-30T11:03:50;4.30;;;2.20;;
70532;SDS011;58088;51.186;17.130;2023-08-30T11:06:17;3.90;;;1.80;;
70532;SDS011;58088;51.186;17.130;2023-08-30T11:08:43;3.30;;;1.60;;
70532;SDS011;58088;51.186;17.130;2023-08-30T11:11:10;3.80;;;2.20;;
70532;SDS011;58088;51.186;17.130;2023-08-30T11:13:37;4.50;;;2.30;;
70532;SDS011;58088;51.186;17.130;2023-08-30T11:16:04;5.00;;;2.70;;
70532;SDS011;58088;51.186;17.130;2023-08-30T11:18:30;5.40;;;2.50;;
70532;SDS011;58088;51.186;17.130;2023-08-30T11:21:02;5.90;;;2.70;;
70532;SDS011;58088;51.186;17.130;2023-08-30T11:23:29;4.40;;;2.30;;
70532;SDS011;58088;51.186;17.130;2023-08-30T11:25:55;4.90;;;2.50;;
70532;SDS011;58088;51.186;17.130;2023-08-30T11:28:25;4.60;;;2.30;;
70532;SDS011;58088;51.186;17.130;2023-08-30T11:30:55;4.70;;;2.20;;
70532;SDS011;58088;51.186;17.130;2023-08-30T11:33:22;4.70;;;1.90;;
70532;SDS011;58088;51.186;17.130;2023-08-30T11:35:49;3.70;;;1.60;;
70532;SDS011;58088;51.186;17.130;2023-08-30T11:38:20;3.20;;;1.40;;
70532;SDS011;58088;51.186;17.130;2023-08-30T11:40:48;3.40;;;1.80;;
70532;SDS011;58088;51.186;17.130;2023-08-30T11:43:16;5.00;;;1.80;;
70532;SDS011;58088;51.186;17.130;2023-08-30T11:45:43;3.70;;;1.80;;
70532;SDS011;58088;51.186;17.130;2023-08-30T11:48:09;2.80;;;1.50;;
70532;SDS011;58088;51.186;17.130;2023-08-30T11:50:36;2.20;;;1.20;;
70532;SDS011;58088;51.186;17.130;2023-08-30T11:53:03;3.00;;;1.50;;
70532;SDS011;58088;51.186;17.130;2023-08-30T11:55:30;3.80;;;1.30;;
70532;SDS011;58088;51.186;17.130;2023-08-30T11:57:57;2.60;;;1.40;;
70532;SDS011;58088;51.186;17.130;2023-08-30T12:00:24;2.80;;;1.10;;
70532;SDS011;58088;51.186;17.130;2023-08-30T12:02:51;4.60;;;1.20;;
70532;SDS011;58088;51.186;17.130;2023-08-30T12:05:17;2.20;;;1.20;;
70532;SDS011;58088;51.186;17.130;2023-08-30T12:07:45;2.90;;;1.10;;
70532;SDS011;58088;51.186;17.130;2023-08-30T12:10:12;2.80;;;0.80;;
70532;SDS011;58088;51.186;17.130;2023-08-30T12:12:44;1.80;;;0.90;;
70532;SDS011;58088;51.186;17.130;2023-08-30T12:15:12;0.90;;;0.60;;
70532;SDS011;58088;51.186;17.130;2023-08-30T12:17:42;2.10;;;0.70;;
70532;SDS011;58088;51.186;17.130;2023-08-30T12:20:16;2.10;;;0.70;;
70532;SDS011;58088;51.186;17.130;2023-08-30T12:22:43;1.50;;;0.70;;
70532;SDS011;58088;51.186;17.130;2023-08-30T12:25:23;1.50;;;0.70;;
70532;SDS011;58088;51.186;17.130;2023-08-30T12:27:50;1.30;;;0.60;;
70532;SDS011;58088;51.186;17.130;2023-08-30T12:30:17;1.10;;;0.70;;
70532;SDS011;58088;51.186;17.130;2023-08-30T12:32:47;2.30;;;0.80;;
70532;SDS011;58088;51.186;17.130;2023-08-30T12:35:14;2.20;;;0.80;;
70532;SDS011;58088;51.186;17.130;2023-08-30T12:37:41;2.90;;;0.90;;
70532;SDS011;58088;51.186;17.130;2023-08-30T12:40:09;1.50;;;0.80;;
70532;SDS011;58088;51.186;17.130;2023-08-30T12:42:37;1.40;;;0.60;;
70532;SDS011;58088;51.186;17.130;2023-08-30T12:45:04;1.20;;;0.70;;
70532;SDS011;58088;51.186;17.130;2023-08-30T12:47:31;2.10;;;0.80;;
70532;SDS011;58088;51.186;17.130;2023-08-30T12:49:57;1.60;;;0.70;;
70532;SDS011;58088;51.186;17.130;2023-08-30T12:52:23;1.70;;;0.70;;
70532;SDS011;58088;51.186;17.130;2023-08-30T12:54:50;1.20;;;0.60;;
70532;SDS011;58088;51.186;17.130;2023-08-30T12:57:18;1.00;;;0.60;;
70532;SDS011;58088;51.186;17.130;2023-08-30T12:59:44;1.40;;;0.70;;
70532;SDS011;58088;51.186;17.130;2023-08-30T13:02:10;1.50;;;0.60;;
70532;SDS011;58088;51.186;17.130;2023-08-30T13:04:36;1.80;;;0.80;;
70532;SDS011;58088;51.186;17.130;2023-08-30T13:07:04;1.30;;;0.80;;
70532;SDS011;58088;51.186;17.130;2023-08-30T13:09:31;1.60;;;0.70;;
70532;SDS011;58088;51.186;17.130;2023-08-30T13:11:58;2.00;;;0.70;;
70532;SDS011;58088;51.186;17.130;2023-08-30T13:14:25;1.20;;;0.50;;
70532;SDS011;58088;51.186;17.130;2023-08-30T13:16:51;2.50;;;0.80;;
70532;SDS011;58088;51.186;17.130;2023-08-30T13:19:17;1.10;;;0.50;;
70532;SDS011;58088;51.186;17.130;2023-08-30T13:21:46;1.20;;;0.70;;
70532;SDS011;58088;51.186;17.130;2023-08-30T13:24:12;1.40;;;0.70;;
70532;SDS011;58088;51.186;17.130;2023-08-30T13:26:40;1.60;;;0.60;;
70532;SDS011;58088;51.186;17.130;2023-08-30T13:29:06;1.00;;;0.60;;
70532;SDS011;58088;51.186;17.130;2023-08-30T13:31:33;2.00;;;0.70;;
70532;SDS011;58088;51.186;17.130;2023-08-30T13:33:59;2.20;;;0.70;;
70532;SDS011;58088;51.186;17.130;2023-08-30T13:36:25;2.80;;;0.70;;
70532;SDS011;58088;51.186;17.130;2023-08-30T13:38:52;1.10;;;0.60;;
70532;SDS011;58088;51.186;17.130;2023-08-30T13:41:19;1.00;;;0.60;;
70532;SDS011;58088;51.186;17.130;2023-08-30T13:43:45;1.10;;;0.60;;
70532;SDS011;58088;51.186;17.130;2023-08-30T13:46:11;2.00;;;0.60;;
70532;SDS011;58088;51.186;17.130;2023-08-30T13:48:38;1.40;;;0.60;;
70532;SDS011;58088;51.186;17.130;2023-08-30T13:51:05;1.10;;;0.70;;
70532;SDS011;58088;51.186;17.130;2023-08-30T13:53:31;1.90;;;0.80;;
70532;SDS011;58088;51.186;17.130;2023-08-30T13:55:58;1.70;;;0.90;;
70532;SDS011;58088;51.186;17.130;2023-08-30T13:58:25;1.20;;;0.60;;
70532;SDS011;58088;51.186;17.130;2023-08-30T14:00:52;1.80;;;0.80;;
70532;SDS011;58088;51.186;17.130;2023-08-30T14:03:20;1.40;;;0.60;;
70532;SDS011;58088;51.186;17.130;2023-08-30T14:05:46;2.40;;;0.80;;
70532;SDS011;58088;51.186;17.130;2023-08-30T14:08:13;1.40;;;0.80;;
70532;SDS011;58088;51.186;17.130;2023-08-30T14:10:39;1.30;;;0.60;;
70532;SDS011;58088;51.186;17.130;2023-08-30T14:13:06;3.30;;;0.70;;
70532;SDS011;58088;51.186;17.130;2023-08-30T14:15:32;1.60;;;0.60;;
70532;SDS011;58088;51.186;17.130;2023-08-30T14:17:59;1.60;;;0.60;;
70532;SDS011;58088;51.186;17.130;2023-08-30T14:20:25;1.80;;;0.80;;
70532;SDS011;58088;51.186;17.130;2023-08-30T14:22:51;1.10;;;0.60;;
70532;SDS011;58088;51.186;17.130;2023-08-30T14:25:18;1.60;;;0.70;;
70532;SDS011;58088;51.186;17.130;2023-08-30T14:27:44;1.40;;;0.70;;
70532;SDS011;58088;51.186;17.130;2023-08-30T14:30:10;2.10;;;0.70;;
70532;SDS011;58088;51.186;17.130;2023-08-30T14:32:37;2.70;;;0.70;;
70532;SDS011;58088;51.186;17.130;2023-08-30T14:35:04;1.40;;;0.50;;
70532;SDS011;58088;51.186;17.130;2023-08-30T14:37:31;2.00;;;0.70;;
70532;SDS011;58088;51.186;17.130;2023-08-30T14:39:58;2.70;;;0.60;;
70532;SDS011;58088;51.186;17.130;2023-08-30T14:42:25;2.30;;;0.70;;